Aérodrome :
LOGIN :

S'inscrire | Disclaimer

   EN    FR    IT 

 










Légende :    VFR   VFR Marginal   IFR   IFR Intensif   IFR Très Intensif
Visi : 
Plafond : 
>= 8 km
>= 3000ft
5 à 8 km
1000 à 3000 ft
1500m à 5 km
500 à 1000 ft
800 à 1500m
200 à 500 ft
< 800m
< 200 ft
Symboles :   Orages  Brouillard  Fortes neiges  Fortes précipitations  Vent > 20 kt
SIGMETs :   Divers  Orages  Givrage  Turbulence  Onde Orograph.  Cendres Volcan.







- Altitude de l'aérodrome : 202 ft
- Code IATA : LGW
- Voir les cartes d'approche


EGKK - London Gatwick

DERNIER METAR :
  • 211520Z 18006KT 160V230 3000 -DZ BKN006 BKN013 15/14 Q1015

METARs EXPIRÉS :
  • 211450Z 19008KT 160V220 8000 BKN015 16/13 Q1015
  • 211420Z 19008KT 160V220 9999 BKN016 16/13 Q1015
  • 211350Z 20009KT 150V230 9999 BKN021 BKN038 17/12 Q1014
  • 211320Z 19009KT 160V230 9999 SCT022 BKN037 17/12 Q1014
  • 211250Z 18009KT 150V210 9999 SCT023 SCT034 17/12 Q1015

TAF TAF EGKK
Valide du 21 à 12h jusqu'au 22 à 18h UTC


211056Z 2112/2218 20012KT 9999 SCT030
TEMPO 2113/2118 8000 -RA BKN012
PROB30
TEMPO 2114/2117 4000 RA BKN008
BECMG 2116/2119 28005KT
BECMG 2122/2201 7000
TEMPO 2201/2208 3000 BR BCFG
PROB40 2203/2208 0400 FG BKN001
BECMG 2208/2211 9999
Pas de NOTAMs connus pour ce terrain.



MET'MAP, la Météo Aéronautique d'un coup d'oeil ! - Copyright ORBIFLY Décembre 2007 - Disclaimer

ORBIFLY MET'MAP TEAM :

Programmation & Développement : Alexandra Zaïnal
Conception & Développement : Baudouin d'Aumeries
Co-Programmation & Développement : Marc-Olivier Méhu
Soutien technique & logistique : Manuel Goepfert

Contact : metmap@orbifly.com




SOURCES & CREDITS :

   NOAA